Time;durP1;ratioP1;P1;durP2;ratioP2;P2;SDS_P1;SDS_P2;PMS_P1;PMS_P2;Temp;Humidity;BMP_temperature;BMP_pressure;BME280_temperature;BME280_humidity;BME280_pressure;Samples;Min_cycle;Max_cycle;Signal;HPM_P1;HPM_P2
2022/10/08 00:00:59;;;;;;;8.88;6.15;;;;;;;13.69;100.00;96243.63;6176825;23;20255;-61
2022/10/08 00:03:27;;;;;;;8.70;6.68;;;;;;;13.67;100.00;96235.00;6176817;23;20008;-61
2022/10/08 00:05:57;;;;;;;8.73;6.55;;;;;;;13.66;100.00;96243.91;6177692;23;20077;-61
2022/10/08 00:08:24;;;;;;;9.02;6.35;;;;;;;13.66;100.00;96233.31;6177181;22;20001;-61
2022/10/08 00:11:00;;;;;;;7.60;6.80;;;;;;;13.64;100.00;96237.09;6177022;23;20011;-59
2022/10/08 00:13:27;;;;;;;9.25;6.43;;;;;;;13.60;100.00;96233.94;6177318;23;20004;-61
2022/10/08 00:15:53;;;;;;;7.95;6.10;;;;;;;13.61;100.00;96238.25;6177303;23;20048;-62
2022/10/08 00:18:19;;;;;;;13.15;6.35;;;;;;;13.63;100.00;96233.63;6176853;23;20021;-61
2022/10/08 00:20:45;;;;;;;6.57;5.95;;;;;;;13.60;100.00;96234.75;6175997;23;20016;-62
2022/10/08 00:23:11;;;;;;;8.80;5.68;;;;;;;13.57;100.00;96232.41;6176878;23;20347;-61
2022/10/08 00:25:42;;;;;;;6.07;5.20;;;;;;;13.54;100.00;96237.13;6176983;23;20335;-61
2022/10/08 00:28:09;;;;;;;11.32;5.90;;;;;;;13.53;100.00;96236.31;6177121;23;20008;-61
2022/10/08 00:30:36;;;;;;;6.93;6.32;;;;;;;13.52;100.00;96228.53;6177311;23;20001;-71
2022/10/08 00:33:02;;;;;;;6.97;6.20;;;;;;;13.54;100.00;96229.19;6176903;23;20005;-71
2022/10/08 00:35:28;;;;;;;6.70;6.07;;;;;;;13.54;100.00;96229.19;6177169;23;20080;-70
2022/10/08 00:37:53;;;;;;;6.75;6.10;;;;;;;13.55;100.00;96222.94;6176604;23;20020;-71
2022/10/08 00:40:18;;;;;;;8.65;5.88;;;;;;;13.55;100.00;96228.22;6176691;23;20466;-70
2022/10/08 00:42:44;;;;;;;6.47;5.88;;;;;;;13.55;100.00;96220.28;6177022;23;20347;-71
2022/10/08 00:45:13;;;;;;;10.50;6.75;;;;;;;13.54;100.00;96229.19;6176828;23;20076;-71
2022/10/08 00:47:42;;;;;;;7.43;6.15;;;;;;;13.51;100.00;96225.06;6176907;23;20016;-62
2022/10/08 00:50:09;;;;;;;7.55;6.75;;;;;;;13.52;100.00;96231.16;6177000;23;20005;-66
2022/10/08 00:52:42;;;;;;;7.55;6.85;;;;;;;13.51;100.00;96224.22;6177317;23;20005;-62
2022/10/08 00:55:09;;;;;;;10.63;7.10;;;;;;;13.49;100.00;96220.88;6176939;23;20427;-62
2022/10/08 00:57:36;;;;;;;17.20;6.85;;;;;;;13.49;100.00;96210.31;6176902;23;20352;-61
2022/10/08 01:00:22;;;;;;;12.35;6.57;;;;;;;13.49;100.00;96220.88;6177714;22;19997;-62
2022/10/08 01:02:48;;;;;;;6.53;5.93;;;;;;;13.47;100.00;96213.09;6177265;23;20072;-61
2022/10/08 01:05:16;;;;;;;8.43;6.22;;;;;;;13.49;100.00;96207.66;6176921;23;20024;-61
2022/10/08 01:08:03;;;;;;;8.63;6.30;;;;;;;13.51;100.00;96208.34;6176942;23;19997;-71
2022/10/08 01:10:52;;;;;;;6.57;5.93;;;;;;;13.53;100.00;96196.66;6177329;23;20001;-70
2022/10/08 01:13:30;;;;;;;6.85;6.35;;;;;;;13.53;100.00;96196.66;6176954;23;20092;-62
2022/10/08 01:16:23;;;;;;;9.57;6.32;;;;;;;13.54;100.00;96192.16;6177066;23;20058;-62
2022/10/08 01:19:10;;;;;;;7.90;6.05;;;;;;;13.51;100.00;96188.03;6176694;23;20482;-62
2022/10/08 01:21:58;;;;;;;17.65;6.55;;;;;;;13.49;100.00;96191.78;6177167;23;20059;-61
2022/10/08 01:27:25;;;;;;;8.65;6.75;;;;;;;13.43;100.00;96190.56;6176941;23;20008;-70
2022/10/08 01:29:51;;;;;;;6.95;6.38;;;;;;;13.45;100.00;96181.50;6176606;23;20359;-70
2022/10/08 01:32:21;;;;;;;6.80;6.20;;;;;;;13.45;100.00;96181.50;6176749;23;20072;-65
2022/10/08 01:34:56;;;;;;;7.10;6.50;;;;;;;13.45;100.00;96178.88;6176123;23;20008;-65
2022/10/08 01:37:31;;;;;;;14.20;6.38;;;;;;;13.49;100.00;96174.13;6176268;23;20687;-65
2022/10/08 01:40:01;;;;;;;7.85;7.05;;;;;;;13.52;100.00;96178.25;6175877;23;20005;-65
2022/10/08 01:42:28;;;;;;;10.50;6.97;;;;;;;13.52;100.00;96180.91;6151666;23;20076;-65
2022/10/08 01:44:59;;;;;;;8.18;6.28;;;;;;;13.52;100.00;96179.13;6176520;23;20058;-65
2022/10/08 01:47:27;;;;;;;7.88;6.45;;;;;;;13.52;100.00;96184.41;6176394;23;20008;-61
2022/10/08 01:50:06;;;;;;;6.63;6.03;;;;;;;13.51;100.00;96168.66;6176376;23;19997;-59
2022/10/08 01:52:37;;;;;;;6.95;6.25;;;;;;;13.51;100.00;96176.59;6176726;23;20401;-59
2022/10/08 01:55:10;;;;;;;7.90;6.90;;;;;;;13.50;100.00;96159.06;6176800;23;20080;-59
2022/10/08 01:57:37;;;;;;;8.90;6.38;;;;;;;13.49;100.00;96170.63;6176541;23;20008;-59
2022/10/08 02:00:09;;;;;;;8.13;6.50;;;;;;;13.50;100.00;96161.72;6176509;23;20358;-59
2022/10/08 02:02:34;;;;;;;6.95;6.35;;;;;;;13.50;100.00;96169.66;6176534;23;20056;-59
2022/10/08 02:05:00;;;;;;;9.48;6.68;;;;;;;13.53;100.00;96166.69;6177412;22;19997;-59
2022/10/08 02:07:36;;;;;;;8.40;6.45;;;;;;;13.52;100.00;96159.75;6176607;23;20065;-64
2022/10/08 02:10:15;;;;;;;12.48;6.75;;;;;;;13.53;100.00;96158.75;6176344;23;19997;-71
2022/10/08 02:12:41;;;;;;;6.70;6.15;;;;;;;13.53;100.00;96151.69;6176280;23;19997;-71
2022/10/08 02:15:11;;;;;;;10.13;6.55;;;;;;;13.56;100.00;96158.47;6176391;23;20001;-71
2022/10/08 02:17:42;;;;;;;7.30;6.57;;;;;;;13.55;100.00;96160.28;6176568;23;20028;-71
2022/10/08 02:20:34;;;;;;;7.25;6.50;;;;;;;13.55;100.00;96157.66;6176032;23;19997;-72
2022/10/08 02:23:24;;;;;;;6.90;6.20;;;;;;;13.55;100.00;96159.44;6170777;23;20348;-71
2022/10/08 02:25:49;;;;;;;8.07;6.45;;;;;;;13.50;100.00;96154.63;6176359;23;20016;-62
2022/10/08 02:28:28;;;;;;;8.52;6.60;;;;;;;13.47;100.00;96154.91;6177002;23;20432;-71
2022/10/08 02:31:05;;;;;;;7.93;6.22;;;;;;;13.46;100.00;96158.53;6176837;23;20009;-61
2022/10/08 02:33:37;;;;;;;6.72;5.95;;;;;;;13.51;100.00;96158.94;6176525;23;20076;-61
2022/10/08 02:36:07;;;;;;;7.10;6.32;;;;;;;13.54;100.00;96160.44;6176376;23;20008;-61
2022/10/08 02:38:38;;;;;;;7.45;6.20;;;;;;;13.56;100.00;96151.38;6149317;22;20005;-61
2022/10/08 02:41:07;;;;;;;7.95;5.75;;;;;;;13.57;100.00;96154.84;6176604;23;20541;-61
2022/10/08 02:43:38;;;;;;;7.97;6.85;;;;;;;13.56;100.00;96158.47;6176304;23;20068;-61
2022/10/08 02:46:13;;;;;;;8.32;6.47;;;;;;;13.57;100.00;96154.84;6176597;23;20401;-59
2022/10/08 02:48:49;;;;;;;10.18;6.35;;;;;;;13.58;100.00;96153.84;6176410;23;20462;-62
2022/10/08 02:51:17;;;;;;;6.90;6.40;;;;;;;13.57;100.00;96157.47;6176489;23;20429;-62
2022/10/08 02:53:44;;;;;;;8.38;6.68;;;;;;;13.54;100.00;96160.44;6176984;23;20005;-62
2022/10/08 02:56:28;;;;;;;8.35;6.82;;;;;;;13.52;100.00;96157.94;6176217;23;20001;-62
2022/10/08 02:58:54;;;;;;;7.65;6.88;;;;;;;13.55;100.00;96157.66;6176167;23;20008;-62
2022/10/08 03:01:41;;;;;;;8.48;7.25;;;;;;;13.55;100.00;96162.09;6150247;22;20059;-62
2022/10/08 03:04:20;;;;;;;7.72;7.05;;;;;;;13.55;100.00;96151.50;6175813;23;20377;-62
2022/10/08 03:06:47;;;;;;;7.88;7.28;;;;;;;13.58;100.00;96156.50;6176243;23;20427;-69
2022/10/08 03:09:14;;;;;;;9.20;7.53;;;;;;;13.54;100.00;96157.78;6176722;22;20001;-62
2022/10/08 03:11:41;;;;;;;8.68;7.78;;;;;;;13.51;100.00;96166.03;6176170;23;20007;-62
2022/10/08 03:14:11;;;;;;;8.32;7.47;;;;;;;13.52;100.00;96157.09;6175914;23;20463;-62
2022/10/08 03:16:39;;;;;;;10.77;8.20;;;;;;;13.53;100.00;96148.19;6176722;23;20040;-62
2022/10/08 03:19:07;;;;;;;12.23;7.03;;;;;;;13.55;100.00;96155.00;6175492;23;20477;-62
2022/10/08 03:21:33;;;;;;;7.65;6.95;;;;;;;13.58;100.00;96159.16;6176031;23;20002;-62
2022/10/08 03:23:59;;;;;;;7.30;6.63;;;;;;;13.58;100.00;96162.63;6176507;23;19997;-63
2022/10/08 03:26:24;;;;;;;8.05;6.68;;;;;;;13.57;100.00;96162.78;6177343;23;20080;-66
2022/10/08 03:28:52;;;;;;;9.48;7.35;;;;;;;13.52;100.00;96157.09;6178300;23;20001;-62
2022/10/08 03:31:18;;;;;;;8.32;7.20;;;;;;;13.52;100.00;96151.81;6177630;23;20057;-61
2022/10/08 03:33:49;;;;;;;7.05;6.32;;;;;;;13.54;100.00;96155.13;6177725;23;20212;-62
2022/10/08 03:36:14;;;;;;;7.82;7.07;;;;;;;13.54;100.00;96150.69;6178292;23;20015;-62
2022/10/08 03:38:39;;;;;;;8.93;7.70;;;;;;;13.57;100.00;96152.19;6177765;23;20075;-62
2022/10/08 03:41:05;;;;;;;7.93;6.93;;;;;;;13.56;100.00;96148.72;6177484;23;19997;-62
2022/10/08 03:43:32;;;;;;;8.95;8.18;;;;;;;13.56;100.00;96148.72;6177489;23;20439;-64
2022/10/08 03:45:57;;;;;;;9.10;8.20;;;;;;;13.54;100.00;96148.06;6177832;23;20027;-62
2022/10/08 03:48:23;;;;;;;8.07;7.30;;;;;;;13.53;100.00;96156.13;6177606;23;20324;-62
2022/10/08 03:50:53;;;;;;;8.98;7.45;;;;;;;13.52;100.00;96149.16;6177827;23;20088;-62
2022/10/08 03:53:19;;;;;;;9.05;7.07;;;;;;;13.52;100.00;96139.44;6178127;23;20005;-62
2022/10/08 03:55:44;;;;;;;7.60;6.95;;;;;;;13.53;100.00;96150.84;6177638;23;20496;-62
2022/10/08 03:58:10;;;;;;;8.70;6.63;;;;;;;13.54;100.00;96149.84;6177403;23;20028;-62
2022/10/08 04:00:35;;;;;;;8.00;7.40;;;;;;;13.53;100.00;96145.53;6177679;23;20054;-62
2022/10/08 04:03:00;;;;;;;8.18;7.28;;;;;;;13.54;100.00;96141.91;6177963;23;20034;-68
2022/10/08 04:05:26;;;;;;;9.85;6.90;;;;;;;13.54;100.00;96144.56;6177488;23;20004;-62
2022/10/08 04:07:51;;;;;;;10.43;7.00;;;;;;;13.53;100.00;96150.84;6177549;23;20709;-61
2022/10/08 04:10:16;;;;;;;9.32;8.18;;;;;;;13.53;100.00;96151.69;6177720;23;20026;-62
2022/10/08 04:12:42;;;;;;;14.10;7.18;;;;;;;13.53;100.00;96154.31;6177659;23;20001;-62
2022/10/08 04:15:08;;;;;;;8.88;6.82;;;;;;;13.52;100.00;96157.09;6177342;23;20026;-62
2022/10/08 04:17:33;;;;;;;8.18;7.38;;;;;;;13.50;100.00;96156.41;6177170;23;20011;-62
2022/10/08 04:19:58;;;;;;;8.27;7.40;;;;;;;13.51;100.00;96152.78;6177987;23;20489;-62
2022/10/08 04:22:24;;;;;;;8.68;7.18;;;;;;;13.51;100.00;96156.28;6177512;23;20005;-59
2022/10/08 04:24:49;;;;;;;8.65;7.78;;;;;;;13.50;100.00;96164.34;6177684;23;20122;-59
2022/10/08 04:27:14;;;;;;;9.23;8.32;;;;;;;13.46;100.00;96162.00;6178115;23;20446;-59
2022/10/08 04:29:40;;;;;;;8.10;7.50;;;;;;;13.47;100.00;96165.47;6177172;23;20107;-59
2022/10/08 04:32:05;;;;;;;8.90;8.13;;;;;;;13.49;100.00;96157.41;6177278;23;20001;-59
2022/10/08 04:34:30;;;;;;;7.97;7.05;;;;;;;13.49;100.00;96165.34;6177343;23;20008;-59
2022/10/08 04:36:56;;;;;;;11.63;7.43;;;;;;;13.54;100.00;96163.06;6176820;23;20443;-59
2022/10/08 04:39:21;;;;;;;8.85;7.60;;;;;;;13.54;100.00;96161.28;6177558;23;20054;-59
2022/10/08 04:41:46;;;;;;;8.68;7.78;;;;;;;13.54;100.00;96166.56;6177287;23;20084;-59
2022/10/08 04:44:12;;;;;;;8.82;7.97;;;;;;;13.53;100.00;96169.34;6177399;23;20432;-64
2022/10/08 04:46:37;;;;;;;11.45;8.07;;;;;;;13.52;100.00;96171.19;6176781;23;20069;-64
2022/10/08 04:49:02;;;;;;;9.60;7.97;;;;;;;13.49;100.00;96173.28;6176927;23;20298;-64
2022/10/08 04:51:28;;;;;;;8.07;7.20;;;;;;;13.50;100.00;96174.94;6177628;23;20027;-63
2022/10/08 04:53:55;;;;;;;8.70;7.30;;;;;;;13.51;100.00;96169.50;6177312;23;20012;-64
2022/10/08 04:56:25;;;;;;;7.88;7.28;;;;;;;13.51;100.00;96174.81;6177715;23;20001;-64
2022/10/08 04:58:51;;;;;;;7.25;6.75;;;;;;;13.48;100.00;96167.13;6177294;23;20012;-64
2022/10/08 05:01:19;;;;;;;8.70;7.88;;;;;;;13.46;100.00;96175.25;6177424;22;20001;-69
2022/10/08 05:03:47;;;;;;;10.98;8.15;;;;;;;13.48;100.00;96174.25;6177169;23;20024;-62
2022/10/08 05:06:16;;;;;;;7.85;7.05;;;;;;;13.44;100.00;96174.56;6177145;22;20347;-62
2022/10/08 05:08:42;;;;;;;8.38;7.57;;;;;;;13.41;100.00;96174.81;6177446;23;20001;-61
2022/10/08 05:11:08;;;;;;;8.63;7.88;;;;;;;13.38;100.00;96176.94;6176674;23;20062;-61
2022/10/08 05:13:33;;;;;;;9.38;7.60;;;;;;;13.32;100.00;96184.47;6177196;23;20440;-62
2022/10/08 05:16:07;;;;;;;8.88;7.97;;;;;;;13.28;100.00;96180.47;6177008;23;20015;-62
2022/10/08 05:18:34;;;;;;;8.50;7.70;;;;;;;13.29;100.00;96176.00;6177376;23;20024;-62
2022/10/08 05:21:09;;;;;;;12.23;6.88;;;;;;;13.30;100.00;96175.84;6176708;23;20028;-68
2022/10/08 05:23:35;;;;;;;;;;;;;;;13.32;100.00;96175.69;6177866;23;20058;-69
2022/10/08 05:26:09;;;;;;;8.65;7.40;;;;;;;13.32;100.00;96176.53;6177136;22;19904;-68
2022/10/08 05:28:34;;;;;;;10.15;8.02;;;;;;;13.29;100.00;96173.34;6177342;23;20004;-68
2022/10/08 05:31:00;;;;;;;8.60;7.82;;;;;;;13.25;100.00;96166.69;6176385;23;20458;-68
2022/10/08 05:33:25;;;;;;;11.05;8.52;;;;;;;13.22;100.00;96159.88;6177492;23;20005;-68
2022/10/08 05:35:51;;;;;;;11.23;8.73;;;;;;;13.20;100.00;96153.91;6176915;23;20001;-68
2022/10/08 05:38:16;;;;;;;10.25;9.23;;;;;;;13.20;100.00;96153.91;6177627;23;20001;-69
2022/10/08 05:40:42;;;;;;;11.55;9.90;;;;;;;13.20;100.00;96147.81;6177304;23;20338;-62
2022/10/08 05:43:07;;;;;;;11.95;8.70;;;;;;;13.21;100.00;96152.94;6176963;23;20478;-68
2022/10/08 05:45:32;;;;;;;10.45;9.15;;;;;;;13.22;100.00;96149.31;6176780;23;20024;-68
2022/10/08 05:47:58;;;;;;;12.20;8.15;;;;;;;13.25;100.00;96145.53;6177041;23;20016;-68
2022/10/08 05:50:23;;;;;;;12.48;7.57;;;;;;;13.27;100.00;96143.59;6176545;23;19997;-68
2022/10/08 05:52:48;;;;;;;9.32;8.38;;;;;;;13.29;100.00;96155.69;6177489;22;20370;-68
2022/10/08 05:55:14;;;;;;;9.20;8.10;;;;;;;13.28;100.00;96155.81;6177263;23;20434;-68
2022/10/08 05:57:39;;;;;;;10.00;7.88;;;;;;;13.27;100.00;96155.00;6176930;23;20015;-69
2022/10/08 06:00:05;;;;;;;8.30;7.07;;;;;;;13.27;100.00;96157.66;6176896;23;20463;-64
2022/10/08 06:02:31;;;;;;;8.98;8.00;;;;;;;13.27;100.00;96152.34;6150931;22;20009;-68
2022/10/08 06:04:56;;;;;;;8.30;7.53;;;;;;;13.27;100.00;96155.00;6176819;23;20329;-68
2022/10/08 06:07:21;;;;;;;7.80;7.20;;;;;;;13.26;100.00;96163.91;6177324;23;20001;-68
2022/10/08 06:09:47;;;;;;;10.82;7.97;;;;;;;13.24;100.00;96165.03;6175585;23;20085;-68
2022/10/08 06:12:12;;;;;;;9.57;7.57;;;;;;;13.22;100.00;96164.34;6176337;23;20494;-69
2022/10/08 06:14:39;;;;;;;9.13;7.75;;;;;;;13.27;100.00;96175.31;6176695;23;20024;-68
2022/10/08 06:17:04;;;;;;;9.45;7.95;;;;;;;13.30;100.00;96173.22;6176957;22;20072;-65
2022/10/08 06:19:32;;;;;;;9.32;7.78;;;;;;;13.34;100.00;96171.09;6175918;23;20494;-69
2022/10/08 06:21:57;;;;;;;8.95;8.15;;;;;;;13.33;100.00;96180.00;6176957;23;20328;-69
2022/10/08 06:24:23;;;;;;;11.35;8.48;;;;;;;13.33;100.00;96186.13;6175927;23;20076;-69
2022/10/08 06:26:48;;;;;;;8.55;7.78;;;;;;;13.35;100.00;96188.63;6175437;23;20338;-69
2022/10/08 06:29:16;;;;;;;8.90;8.18;;;;;;;13.36;100.00;96190.28;6175392;23;20001;-69
2022/10/08 06:31:42;;;;;;;8.13;7.45;;;;;;;13.36;100.00;96187.63;6174430;23;20001;-69
2022/10/08 06:34:08;;;;;;;9.65;7.88;;;;;;;13.38;100.00;96192.78;6175121;23;20001;-69
2022/10/08 06:36:36;;;;;;;9.90;8.30;;;;;;;13.38;100.00;96198.94;6175385;23;20429;-64
2022/10/08 06:39:05;;;;;;;10.73;7.10;;;;;;;13.39;100.00;96205.03;6175974;23;20470;-58
2022/10/08 06:41:33;;;;;;;9.10;8.23;;;;;;;13.40;100.00;96202.25;6176553;23;20001;-58
2022/10/08 06:43:59;;;;;;;8.68;7.75;;;;;;;13.45;100.00;96204.47;6176847;22;20054;-59
2022/10/08 06:46:24;;;;;;;8.80;7.93;;;;;;;13.45;100.00;96207.13;6176350;23;20004;-58
2022/10/08 06:48:49;;;;;;;8.27;7.57;;;;;;;13.45;100.00;96202.66;6176068;23;20025;-59
2022/10/08 06:51:17;;;;;;;8.73;7.97;;;;;;;13.48;100.00;96208.63;6176437;23;20076;-58
2022/10/08 06:53:46;;;;;;;10.00;9.10;;;;;;;13.50;100.00;96196.09;6176412;23;20380;-58
2022/10/08 06:56:14;;;;;;;10.32;9.43;;;;;;;13.50;100.00;96196.09;6176518;22;20061;-69
2022/10/08 06:58:42;;;;;;;16.25;9.70;;;;;;;13.49;100.00;96205.88;6176822;23;20080;-64
2022/10/08 07:01:20;;;;;;;10.73;9.05;;;;;;;13.47;100.00;96207.78;6179427;23;20001;-58
2022/10/08 07:03:50;;;;;;;9.20;8.23;;;;;;;13.45;100.00;96200.03;6178441;23;20474;-58
2022/10/08 07:06:16;;;;;;;8.80;7.55;;;;;;;13.44;100.00;96202.81;6178244;23;20001;-58
2022/10/08 07:08:41;;;;;;;12.38;8.27;;;;;;;13.47;100.00;96191.94;6177514;23;20008;-59
2022/10/08 07:11:13;;;;;;;9.00;7.95;;;;;;;13.49;100.00;96197.94;6178392;23;20001;-58
2022/10/08 07:13:39;;;;;;;8.30;7.47;;;;;;;13.54;100.00;96202.75;6153197;23;20005;-59
2022/10/08 07:16:17;;;;;;;8.75;7.85;;;;;;;13.59;100.00;96205.78;6177806;23;20016;-61
2022/10/08 07:18:42;;;;;;;8.40;7.60;;;;;;;13.62;100.00;96210.81;6178196;23;20020;-62
2022/10/08 07:21:11;;;;;;;7.93;7.22;;;;;;;13.65;100.00;96214.94;6177591;22;20080;-61
2022/10/08 07:23:36;;;;;;;10.25;8.70;;;;;;;13.68;100.00;96215.50;6174726;23;20001;-61
2022/10/08 07:26:05;;;;;;;11.70;8.38;;;;;;;13.71;100.00;96215.19;6179395;23;20324;-61
2022/10/08 07:28:35;;;;;;;15.20;7.70;;;;;;;13.71;100.00;96212.53;6177585;23;20039;-62
2022/10/08 07:31:11;;;;;;;11.02;7.50;;;;;;;13.75;100.00;96215.72;6176749;23;20011;-61
2022/10/08 07:33:37;;;;;;;11.32;9.18;;;;;;;13.78;100.00;96215.44;6175497;23;20005;-60
2022/10/08 07:36:13;;;;;;;11.57;8.07;;;;;;;13.84;100.00;96217.47;6176250;23;20068;-61
2022/10/08 07:38:40;;;;;;;10.95;8.85;;;;;;;13.95;100.00;96220.91;6176839;23;20047;-67
2022/10/08 07:41:07;;;;;;;9.60;8.05;;;;;;;14.09;100.00;96217.72;6177622;23;20447;-67
2022/10/08 07:43:33;;;;;;;17.73;11.95;;;;;;;14.19;100.00;96230.88;6179126;22;20013;-67
2022/10/08 07:45:58;;;;;;;10.40;9.40;;;;;;;14.10;100.00;96222.03;6179159;23;19997;-67
2022/10/08 07:48:23;;;;;;;10.38;8.57;;;;;;;14.10;100.00;96227.31;6179563;22;20067;-67
2022/10/08 07:50:49;;;;;;;8.85;8.05;;;;;;;14.13;100.00;96220.91;6179511;23;20067;-67
2022/10/08 07:53:15;;;;;;;10.55;7.50;;;;;;;14.13;100.00;96226.19;6179438;23;20012;-60
2022/10/08 07:55:41;;;;;;;8.95;7.57;;;;;;;14.15;100.00;96225.06;6179343;23;20001;-68
2022/10/08 07:58:06;;;;;;;7.28;6.60;;;;;;;14.21;100.00;96225.44;6179455;23;20005;-67
2022/10/08 08:00:31;;;;;;;8.98;7.10;;;;;;;14.27;100.00;96225.69;6179453;23;20016;-68
2022/10/08 08:02:57;;;;;;;7.65;6.90;;;;;;;14.32;100.00;96228.69;6179019;23;19997;-67
2022/10/08 08:05:22;;;;;;;7.63;6.68;;;;;;;14.41;100.00;96221.66;6179505;23;20301;-68
2022/10/08 08:07:48;;;;;;;6.90;6.40;;;;;;;14.54;100.00;96215.97;6179415;23;20115;-68
2022/10/08 08:10:13;;;;;;;9.30;7.50;;;;;;;14.57;100.00;96220.09;6178389;23;20122;-67
2022/10/08 08:12:39;;;;;;;7.18;6.47;;;;;;;14.62;100.00;96217.84;6177591;23;20134;-62
2022/10/08 08:15:04;;;;;;;8.55;6.60;;;;;;;14.72;100.00;96215.13;6177560;23;20434;-64
2022/10/08 08:17:30;;;;;;;7.65;6.35;;;;;;;14.80;100.00;96214.31;6177752;23;20016;-69
2022/10/08 08:19:55;;;;;;;7.35;6.35;;;;;;;14.85;100.00;96212.88;6177424;23;20076;-72
2022/10/08 08:22:20;;;;;;;8.40;6.68;;;;;;;14.88;100.00;96212.56;6177411;23;20027;-71
2022/10/08 08:24:46;;;;;;;6.25;5.75;;;;;;;14.98;100.00;96217.75;6177312;23;20408;-73
2022/10/08 08:27:11;;;;;;;7.70;5.82;;;;;;;15.02;100.00;96219.09;6176771;23;20004;-73
2022/10/08 08:29:36;;;;;;;7.30;5.70;;;;;;;15.08;100.00;96217.66;6176569;22;20039;-71
2022/10/08 08:32:02;;;;;;;7.05;5.65;;;;;;;15.20;100.00;96215.56;6176798;23;19997;-66
2022/10/08 08:34:29;;;;;;;6.43;5.82;;;;;;;15.25;100.00;96218.59;6176390;23;20012;-70
2022/10/08 08:36:54;;;;;;;6.45;5.88;;;;;;;15.28;100.00;96217.41;6177469;23;20008;-68
2022/10/08 08:39:25;;;;;;;7.05;6.45;;;;;;;15.31;100.00;96212.63;6177077;23;20001;-68
2022/10/08 08:42:19;;;;;;;6.30;5.70;;;;;;;15.34;100.00;96211.47;6177346;23;20454;-70
2022/10/08 08:44:55;;;;;;;5.57;5.10;;;;;;;15.42;100.00;96219.50;6177455;23;20363;-70
2022/10/08 08:47:40;;;;;;;7.55;5.00;;;;;;;15.52;100.00;96215.88;6177832;23;20001;-72
2022/10/08 08:50:23;;;;;;;5.60;5.18;;;;;;;15.69;100.00;96209.63;6177308;23;20477;-70
2022/10/08 08:52:50;;;;;;;9.82;6.95;;;;;;;15.83;100.00;96217.97;6176991;23;20459;-60
2022/10/08 08:55:24;;;;;;;6.57;5.90;;;;;;;15.92;100.00;96221.50;6177857;22;20036;-69
2022/10/08 08:57:52;;;;;;;5.68;4.93;;;;;;;16.02;100.00;96215.03;6177210;23;19997;-68
2022/10/08 09:00:21;;;;;;;5.32;4.82;;;;;;;16.10;100.00;96210.75;6177352;23;20001;-68
2022/10/08 09:02:58;;;;;;;4.93;4.30;;;;;;;16.09;100.00;96217.06;6177100;23;20003;-70
2022/10/08 09:05:25;;;;;;;7.07;5.43;;;;;;;16.19;100.00;96217.72;6176313;23;20355;-70
2022/10/08 09:07:57;;;;;;;5.82;5.30;;;;;;;16.26;100.00;96221.41;6176961;23;20066;-70
2022/10/08 09:10:34;;;;;;;5.60;5.00;;;;;;;16.25;100.00;96219.75;6177210;23;20070;-71
2022/10/08 09:13:01;;;;;;;5.65;5.15;;;;;;;16.25;100.00;96229.53;6176554;23;20008;-63
2022/10/08 09:15:36;;;;;;;9.27;5.07;;;;;;;16.29;100.00;96234.34;6175894;23;20389;-63
2022/10/08 09:18:03;;;;;;;6.72;6.15;;;;;;;16.40;100.00;96233.19;6176442;23;20020;-63
2022/10/08 09:20:30;;;;;;;7.13;6.60;;;;;;;16.35;100.00;96232.84;6177082;23;20332;-63
2022/10/08 09:22:56;;;;;;;7.78;7.07;;;;;;;16.25;100.00;96238.34;6177155;23;20066;-64
2022/10/08 09:25:30;;;;;;;10.82;7.30;;;;;;;16.22;100.00;96235.16;6175834;23;20363;-63
2022/10/08 09:27:56;;;;;;;8.18;7.45;;;;;;;16.19;100.00;96236.31;6176587;22;20005;-62
2022/10/08 09:30:30;;;;;;;8.40;7.35;;;;;;;16.10;100.00;96237.31;6177039;23;19997;-69
2022/10/08 09:32:58;;;;;;;8.43;7.63;;;;;;;16.02;100.00;96236.28;6175818;22;20031;-63
2022/10/08 09:35:24;;;;;;;11.30;8.27;;;;;;;15.97;100.00;96248.41;6175797;23;20001;-59
2022/10/08 09:37:50;;;;;;;7.90;7.20;;;;;;;16.13;100.00;96245.75;6176821;23;20009;-58
2022/10/08 09:40:21;;;;;;;8.95;7.55;;;;;;;15.90;100.00;96248.22;6176894;23;20497;-59
2022/10/08 09:43:10;;;;;;;8.25;7.53;;;;;;;15.93;100.00;96249.72;6177097;22;20055;-59
2022/10/08 09:45:47;;;;;;;9.05;8.15;;;;;;;15.90;100.00;96245.56;6176846;23;20000;-59
2022/10/08 09:48:27;;;;;;;10.82;7.80;;;;;;;15.88;100.00;96253.66;6176703;23;20082;-58
2022/10/08 09:51:05;;;;;;;10.95;7.57;;;;;;;15.91;100.00;96249.88;6176933;23;20008;-62
2022/10/08 09:53:40;;;;;;;7.90;7.15;;;;;;;15.78;100.00;96244.16;6176639;23;20013;-63
2022/10/08 09:56:07;;;;;;;11.02;7.00;;;;;;;15.71;100.00;96254.59;6176143;23;20051;-62
2022/10/08 09:58:39;;;;;;;8.95;8.05;;;;;;;15.58;100.00;96249.72;6177141;22;20001;-62
2022/10/08 10:01:13;;;;;;;10.63;8.68;;;;;;;15.82;100.00;96256.13;6175790;23;20466;-63
2022/10/08 10:03:39;;;;;;;9.60;8.73;;;;;;;15.55;100.00;96258.00;6175894;22;19997;-63
2022/10/08 10:06:05;;;;;;;12.95;8.43;;;;;;;15.56;100.00;96254.34;6177286;23;20005;-62
2022/10/08 10:08:42;;;;;;;10.32;8.52;;;;;;;15.65;100.00;96255.22;6176135;23;20487;-64
2022/10/08 10:11:12;;;;;;;10.63;8.60;;;;;;;15.58;100.00;96255.03;6174215;23;20390;-64
2022/10/08 10:13:39;;;;;;;11.38;8.43;;;;;;;15.50;100.00;96255.00;6174866;23;20025;-65
2022/10/08 10:16:13;;;;;;;9.70;8.48;;;;;;;15.52;100.00;96255.66;6174023;23;20078;-65
2022/10/08 10:19:03;;;;;;;12.65;9.10;;;;;;;15.53;100.00;96259.97;6174057;23;20021;-64
2022/10/08 10:21:37;;;;;;;10.07;9.07;;;;;;;15.58;100.00;96253.22;6174191;23;20001;-66
2022/10/08 10:24:05;;;;;;;11.95;9.35;;;;;;;15.53;100.00;96254.66;6174493;23;20440;-63
2022/10/08 10:26:36;;;;;;;17.17;8.65;;;;;;;15.53;100.00;96252.03;6175713;23;20005;-63
2022/10/08 10:29:09;;;;;;;10.02;9.10;;;;;;;15.57;100.00;96248.91;6176280;23;20140;-69
2022/10/08 10:31:47;;;;;;;9.10;8.20;;;;;;;15.53;100.00;96252.03;6176247;23;20078;-65
2022/10/08 10:34:19;;;;;;;11.45;9.02;;;;;;;15.44;100.00;96248.50;6176248;23;20347;-65
2022/10/08 10:36:51;;;;;;;11.82;10.82;;;;;;;15.29;100.00;96258.88;6177155;23;20000;-66
2022/10/08 10:39:31;;;;;;;11.38;9.98;;;;;;;15.26;100.00;96256.53;6176850;23;20019;-66
2022/10/08 10:42:17;;;;;;;10.50;9.68;;;;;;;15.18;100.00;96254.66;6176960;23;20468;-66
2022/10/08 10:44:42;;;;;;;12.43;11.32;;;;;;;15.09;100.00;96255.63;6176461;23;20021;-66
2022/10/08 10:47:09;;;;;;;12.32;9.52;;;;;;;15.11;100.00;96243.03;6176588;23;20046;-62
2022/10/08 10:49:37;;;;;;;11.48;10.10;;;;;;;15.16;100.00;96246.88;6176856;23;20004;-66
2022/10/08 10:52:24;;;;;;;11.00;10.10;;;;;;;15.18;100.00;96247.56;6177056;23;19997;-62
2022/10/08 10:54:49;;;;;;;10.98;9.98;;;;;;;15.18;100.00;96247.56;6176455;23;20016;-62
2022/10/08 10:57:38;;;;;;;10.68;9.60;;;;;;;15.21;100.00;96246.38;6176297;23;20004;-62
2022/10/08 11:00:12;;;;;;;11.15;9.88;;;;;;;15.25;100.00;96237.16;6176932;23;19997;-62
2022/10/08 11:02:55;;;;;;;9.98;8.98;;;;;;;15.33;100.00;96233.69;6177209;23;20007;-62
2022/10/08 11:05:24;;;;;;;12.07;9.23;;;;;;;15.38;100.00;96231.41;6176629;23;20202;-62
2022/10/08 11:08:17;;;;;;;9.73;8.75;;;;;;;15.49;100.00;96235.59;6176997;23;20011;-63
2022/10/08 11:10:58;;;;;;;7.85;7.05;;;;;;;15.47;100.00;96235.75;6176261;23;20350;-67
2022/10/08 11:13:45;;;;;;;10.45;9.35;;;;;;;15.46;100.00;96230.59;6177276;23;20012;-67
2022/10/08 11:16:22;;;;;;;8.57;7.70;;;;;;;15.51;100.00;96227.47;6176485;23;20073;-67
2022/10/08 11:18:56;;;;;;;7.97;7.30;;;;;;;15.54;100.00;96228.00;6176425;23;20021;-67
2022/10/08 11:21:37;;;;;;;9.37;7.07;;;;;;;15.57;100.00;96227.66;6176426;23;20397;-67
2022/10/08 11:24:28;;;;;;;8.77;6.97;;;;;;;15.62;100.00;96227.19;6176297;23;20025;-67
2022/10/08 11:27:47;;;;;;;7.88;7.22;;;;;;;15.63;100.00;96218.25;6176469;23;20013;-63
2022/10/08 11:30:21;;;;;;;7.00;6.30;;;;;;;15.64;100.00;96227.84;6178177;23;20432;-68
2022/10/08 11:32:54;;;;;;;7.88;7.18;;;;;;;15.59;100.00;96228.34;6176625;23;20342;-68
2022/10/08 11:35:24;;;;;;;7.95;7.30;;;;;;;15.57;100.00;96226.81;6175921;22;20461;-68
2022/10/08 11:37:58;;;;;;;7.78;7.07;;;;;;;15.57;100.00;96225.00;6176312;23;20004;-68
2022/10/08 11:40:39;;;;;;;7.47;6.63;;;;;;;15.57;100.00;96213.56;6176534;23;20005;-68